Time;durP1;ratioP1;P1;durP2;ratioP2;P2;SDS_P1;SDS_P2;PMS_P1;PMS_P2;Temp;Humidity;BMP_temperature;BMP_pressure;BME280_temperature;BME280_humidity;BME280_pressure;Samples;Min_cycle;Max_cycle;Signal;HPM_P1;HPM_P2
2021/10/28 00:13:53;;;;;;;;;17.25;15.00;;;;;;;;5061171;28;11516;-87
2021/10/28 00:16:25;;;;;;;;;23.25;20.25;;;;;;;;5063046;28;11606;-75
2021/10/28 00:19:00;;;;;;;;;18.25;15.75;;;;;;;;5068777;28;11605;-82
2021/10/28 00:21:29;;;;;;;;;24.50;24.50;;;;;;;;5065144;28;11523;-84
2021/10/28 00:24:00;;;;;;;;;20.50;18.25;;;;;;;;5064828;28;11749;-86
2021/10/28 00:26:28;;;;;;;;;21.75;19.00;;;;;;;;5067582;28;11590;-75
2021/10/28 00:28:59;;;;;;;;;24.25;19.75;;;;;;;;5065472;28;11578;-79
2021/10/28 00:31:29;;;;;;;;;22.75;22.00;;;;;;;;5065832;28;11531;-76
2021/10/28 00:33:57;;;;;;;;;22.75;19.75;;;;;;;;5064860;28;11724;-87
2021/10/28 00:36:26;;;;;;;;;20.00;20.00;;;;;;;;5072275;28;11595;-87
2021/10/28 00:38:53;;;;;;;;;19.00;13.50;;;;;;;;5063722;28;11691;-81
2021/10/28 00:41:23;;;;;;;;;27.25;25.50;;;;;;;;5083021;28;11542;-86
2021/10/28 00:43:54;;;;;;;;;22.50;18.75;;;;;;;;5063186;28;11584;-88
2021/10/28 00:46:22;;;;;;;;;23.75;23.75;;;;;;;;5062293;28;11663;-78
2021/10/28 00:48:53;;;;;;;;;20.25;20.25;;;;;;;;5065824;28;11597;-75
2021/10/28 00:51:22;;;;;;;;;37.50;35.00;;;;;;;;5052426;28;11603;-82
2021/10/28 00:53:53;;;;;;;;;37.25;31.50;;;;;;;;5065913;28;11612;-78
2021/10/28 00:56:22;;;;;;;;;44.25;36.50;;;;;;;;5053452;28;11614;-88
2021/10/28 00:58:50;;;;;;;;;26.25;23.50;;;;;;;;5056626;28;11646;-83
2021/10/28 01:01:17;;;;;;;;;27.00;20.50;;;;;;;;5062468;28;11547;-83
2021/10/28 01:03:45;;;;;;;;;30.75;28.75;;;;;;;;5065969;28;11588;-91
2021/10/28 01:06:15;;;;;;;;;31.75;29.50;;;;;;;;5065191;28;11618;-89
2021/10/28 01:08:46;;;;;;;;;25.25;24.00;;;;;;;;5064302;28;11615;-78
2021/10/28 01:11:14;;;;;;;;;31.50;30.75;;;;;;;;5053999;28;11730;-89
2021/10/28 01:13:42;;;;;;;;;34.00;29.50;;;;;;;;5060421;28;11749;-84
2021/10/28 01:16:10;;;;;;;;;19.50;17.50;;;;;;;;5065568;28;11640;-87
2021/10/28 01:18:38;;;;;;;;;29.00;22.50;;;;;;;;5064843;28;11592;-82
2021/10/28 01:21:08;;;;;;;;;24.00;24.00;;;;;;;;5064804;28;11596;-85
2021/10/28 01:23:38;;;;;;;;;24.25;22.25;;;;;;;;5057712;28;11619;-81
2021/10/28 01:26:07;;;;;;;;;24.75;22.75;;;;;;;;5064578;28;11621;-87
2021/10/28 01:28:37;;;;;;;;;29.00;23.25;;;;;;;;5065039;28;12193;-81
2021/10/28 01:31:07;;;;;;;;;25.75;23.25;;;;;;;;5066038;28;11527;-80
2021/10/28 01:33:35;;;;;;;;;18.75;15.50;;;;;;;;5065250;28;11605;-85
2021/10/28 01:36:02;;;;;;;;;19.25;17.75;;;;;;;;5059631;28;12335;-76
2021/10/28 01:38:30;;;;;;;;;20.50;13.75;;;;;;;;5065643;28;11721;-82
2021/10/28 01:41:00;;;;;;;;;19.00;14.75;;;;;;;;5062593;28;11625;-78
2021/10/28 01:43:28;;;;;;;;;18.75;18.75;;;;;;;;5058209;28;11691;-79
2021/10/28 01:45:56;;;;;;;;;18.50;17.25;;;;;;;;5064953;28;12599;-87
2021/10/28 01:48:25;;;;;;;;;16.50;15.50;;;;;;;;5074685;28;11594;-84
2021/10/28 01:50:53;;;;;;;;;6.25;6.25;;;;;;;;5076215;28;11658;-88
2021/10/28 01:53:21;;;;;;;;;14.50;14.00;;;;;;;;5071070;28;12282;-88
2021/10/28 01:55:50;;;;;;;;;14.75;9.00;;;;;;;;5081160;28;11726;-86
2021/10/28 01:58:22;;;;;;;;;10.75;10.25;;;;;;;;5067307;28;11618;-88
2021/10/28 02:00:50;;;;;;;;;16.25;12.75;;;;;;;;5063143;28;12321;-86
2021/10/28 02:03:18;;;;;;;;;18.25;14.00;;;;;;;;5060697;28;11631;-83
2021/10/28 02:05:47;;;;;;;;;14.25;13.50;;;;;;;;5067618;28;11664;-86
2021/10/28 02:08:16;;;;;;;;;12.75;11.00;;;;;;;;5063275;28;11586;-78
2021/10/28 02:10:43;;;;;;;;;11.25;11.25;;;;;;;;5064880;28;11608;-87
2021/10/28 02:13:13;;;;;;;;;13.25;10.75;;;;;;;;5053349;28;11620;-87
2021/10/28 02:15:41;;;;;;;;;16.00;11.50;;;;;;;;5056790;28;11599;-75
2021/10/28 02:18:09;;;;;;;;;11.25;11.00;;;;;;;;5068467;28;11573;-83
2021/10/28 02:20:38;;;;;;;;;10.50;10.50;;;;;;;;5054640;28;11601;-81
2021/10/28 02:23:06;;;;;;;;;10.00;10.00;;;;;;;;5061409;28;11618;-77
2021/10/28 02:25:33;;;;;;;;;9.50;6.00;;;;;;;;5063570;28;11712;-80
2021/10/28 02:28:00;;;;;;;;;13.25;9.25;;;;;;;;5063380;28;11561;-88
2021/10/28 02:30:29;;;;;;;;;8.75;8.75;;;;;;;;5062235;28;12280;-82
2021/10/28 02:32:57;;;;;;;;;14.00;12.00;;;;;;;;5063579;28;11598;-82
2021/10/28 02:35:24;;;;;;;;;9.00;9.00;;;;;;;;5062461;28;11584;-84
2021/10/28 02:37:52;;;;;;;;;6.75;6.75;;;;;;;;5046371;28;11556;-89
2021/10/28 02:40:19;;;;;;;;;8.50;8.50;;;;;;;;5057225;28;11553;-81
2021/10/28 02:42:46;;;;;;;;;7.75;5.75;;;;;;;;5057021;28;11658;-75
2021/10/28 02:45:14;;;;;;;;;7.00;7.00;;;;;;;;5067460;28;11596;-80
2021/10/28 02:47:42;;;;;;;;;10.50;6.50;;;;;;;;5061938;28;11567;-80
2021/10/28 02:50:10;;;;;;;;;6.75;6.75;;;;;;;;5057577;28;12517;-79
2021/10/28 02:52:37;;;;;;;;;9.00;6.25;;;;;;;;5060902;28;11683;-87
2021/10/28 02:55:06;;;;;;;;;7.75;7.75;;;;;;;;5080950;28;11683;-87
2021/10/28 02:57:33;;;;;;;;;8.75;8.75;;;;;;;;5045441;28;11552;-90
2021/10/28 03:00:01;;;;;;;;;11.50;8.75;;;;;;;;5063545;28;11604;-86
2021/10/28 03:02:28;;;;;;;;;6.75;6.75;;;;;;;;5060704;28;11487;-83
2021/10/28 03:04:57;;;;;;;;;7.25;6.00;;;;;;;;5047670;28;11552;-76
2021/10/28 03:07:24;;;;;;;;;9.50;9.50;;;;;;;;5070586;28;11719;-81
2021/10/28 03:09:52;;;;;;;;;10.25;9.00;;;;;;;;5067223;28;11670;-85
2021/10/28 03:12:19;;;;;;;;;7.25;7.25;;;;;;;;5061450;28;11565;-78
2021/10/28 03:14:51;;;;;;;;;9.00;6.25;;;;;;;;5063053;28;11588;-88
2021/10/28 03:17:27;;;;;;;;;8.50;6.50;;;;;;;;5071610;28;11535;-86
2021/10/28 03:25:32;;;;;;;;;7.25;7.25;;;;;;;;5055732;28;11562;-88
2021/10/28 03:25:41;;;;;;;;;7.25;5.75;;;;;;;;5066011;28;11508;-88
2021/10/28 03:28:16;;;;;;;;;13.75;8.25;;;;;;;;5066786;28;11541;-83
2021/10/28 03:30:45;;;;;;;;;10.25;8.75;;;;;;;;5063927;28;11490;-86
2021/10/28 03:33:14;;;;;;;;;9.00;9.00;;;;;;;;5068351;28;11529;-78
2021/10/28 03:35:47;;;;;;;;;7.00;7.00;;;;;;;;5066706;28;11600;-87
2021/10/28 03:38:20;;;;;;;;;10.75;9.00;;;;;;;;5069880;28;11543;-89
2021/10/28 03:43:58;;;;;;;;;13.00;8.00;;;;;;;;5059927;28;11726;-75
2021/10/28 03:46:44;;;;;;;;;7.50;7.50;;;;;;;;5075312;28;11664;-82
2021/10/28 03:55:21;;;;;;;;;9.50;9.00;;;;;;;;5068896;28;11628;-74
2021/10/28 03:58:05;;;;;;;;;7.25;7.25;;;;;;;;5060775;28;11531;-79
2021/10/28 04:06:29;;;;;;;;;10.75;9.00;;;;;;;;5031751;28;11599;-89
2021/10/28 04:31:11;;;;;;;;;10.75;10.75;;;;;;;;5065676;28;11424;-79
2021/10/28 04:33:42;;;;;;;;;9.25;9.25;;;;;;;;5086000;28;11495;-75
2021/10/28 04:36:09;;;;;;;;;7.00;7.00;;;;;;;;5068428;28;11628;-79
2021/10/28 04:38:36;;;;;;;;;13.25;13.25;;;;;;;;5042155;28;11527;-83
2021/10/28 04:41:05;;;;;;;;;9.00;9.00;;;;;;;;5067112;28;11548;-75
2021/10/28 04:43:33;;;;;;;;;10.25;8.00;;;;;;;;5066026;28;11506;-74
2021/10/28 04:46:00;;;;;;;;;9.50;9.25;;;;;;;;5060356;28;12401;-77
2021/10/28 04:48:28;;;;;;;;;7.00;7.00;;;;;;;;5066797;28;11630;-75
2021/10/28 04:50:55;;;;;;;;;6.25;6.25;;;;;;;;5065981;28;12291;-77
2021/10/28 04:53:23;;;;;;;;;8.50;8.50;;;;;;;;5063637;28;11473;-76
2021/10/28 04:55:51;;;;;;;;;9.25;9.00;;;;;;;;5065998;28;11610;-81
2021/10/28 04:58:19;;;;;;;;;7.50;7.50;;;;;;;;5064576;28;12320;-78
2021/10/28 05:00:47;;;;;;;;;10.25;8.50;;;;;;;;5071806;28;11446;-79
2021/10/28 05:03:14;;;;;;;;;10.75;9.25;;;;;;;;5076012;28;11495;-76
2021/10/28 05:05:41;;;;;;;;;7.00;7.00;;;;;;;;5069783;28;11495;-79
2021/10/28 05:08:09;;;;;;;;;7.00;5.25;;;;;;;;5042730;28;11477;-74
2021/10/28 05:10:36;;;;;;;;;11.25;8.50;;;;;;;;5058310;28;11518;-75
2021/10/28 05:13:03;;;;;;;;;9.00;9.00;;;;;;;;5064934;28;11547;-80
2021/10/28 05:15:32;;;;;;;;;12.50;10.00;;;;;;;;5061209;28;11602;-79
2021/10/28 05:18:00;;;;;;;;;9.25;9.25;;;;;;;;5060330;28;11510;-78
2021/10/28 05:20:27;;;;;;;;;5.00;5.00;;;;;;;;5059733;28;11505;-76
2021/10/28 05:22:54;;;;;;;;;7.00;7.00;;;;;;;;5061866;28;11498;-74
2021/10/28 05:25:22;;;;;;;;;11.25;6.75;;;;;;;;5060992;28;11527;-73
2021/10/28 05:27:49;;;;;;;;;7.50;7.00;;;;;;;;5062005;28;11579;-78
2021/10/28 05:30:16;;;;;;;;;10.25;9.25;;;;;;;;5060245;28;11470;-78
2021/10/28 05:32:45;;;;;;;;;5.00;5.00;;;;;;;;5061612;28;11493;-78
2021/10/28 05:35:12;;;;;;;;;8.50;6.50;;;;;;;;5062221;28;11484;-78
2021/10/28 05:37:40;;;;;;;;;10.00;7.50;;;;;;;;5061855;28;11642;-78
2021/10/28 05:40:09;;;;;;;;;7.50;7.50;;;;;;;;5063368;28;11572;-76
2021/10/28 05:42:38;;;;;;;;;6.25;6.25;;;;;;;;5063187;28;11505;-76
2021/10/28 05:45:06;;;;;;;;;7.00;7.00;;;;;;;;5061120;28;11532;-78
2021/10/28 05:47:33;;;;;;;;;9.75;9.75;;;;;;;;5044563;28;11467;-76
2021/10/28 05:50:02;;;;;;;;;9.00;9.00;;;;;;;;5043426;28;11531;-78
2021/10/28 05:52:30;;;;;;;;;9.75;9.75;;;;;;;;5058880;28;11500;-74
2021/10/28 05:54:57;;;;;;;;;10.00;10.00;;;;;;;;5058823;28;11526;-74
2021/10/28 05:57:24;;;;;;;;;13.50;13.00;;;;;;;;5058882;28;12389;-74
2021/10/28 05:59:51;;;;;;;;;13.00;11.50;;;;;;;;5060607;28;11644;-74
2021/10/28 06:02:19;;;;;;;;;13.00;13.00;;;;;;;;5057357;28;12264;-73
2021/10/28 06:04:46;;;;;;;;;12.00;10.50;;;;;;;;5060416;28;11502;-74
2021/10/28 06:07:15;;;;;;;;;10.00;7.00;;;;;;;;5042157;28;11516;-73
2021/10/28 06:09:42;;;;;;;;;17.25;13.00;;;;;;;;5057980;28;11503;-74
2021/10/28 06:12:10;;;;;;;;;14.00;12.25;;;;;;;;5058921;28;11548;-73
2021/10/28 06:14:37;;;;;;;;;13.25;13.25;;;;;;;;5058503;28;11591;-71
2021/10/28 06:17:07;;;;;;;;;16.00;14.25;;;;;;;;5040347;28;11561;-73
2021/10/28 06:19:35;;;;;;;;;14.25;11.50;;;;;;;;5060109;28;11621;-72
2021/10/28 06:22:02;;;;;;;;;7.50;7.50;;;;;;;;5061284;28;11524;-74
2021/10/28 06:24:31;;;;;;;;;13.75;13.00;;;;;;;;5056839;28;11496;-75
2021/10/28 06:26:59;;;;;;;;;16.00;16.00;;;;;;;;5045817;28;11542;-74
2021/10/28 06:29:26;;;;;;;;;17.25;14.75;;;;;;;;5058897;28;11516;-75
2021/10/28 06:31:53;;;;;;;;;13.75;11.75;;;;;;;;5062307;28;11487;-74
2021/10/28 06:34:21;;;;;;;;;11.00;10.00;;;;;;;;5062857;28;11602;-76
2021/10/28 06:36:50;;;;;;;;;13.00;13.00;;;;;;;;5063016;28;11535;-74
2021/10/28 06:39:17;;;;;;;;;16.00;14.75;;;;;;;;5062238;28;11532;-73
2021/10/28 06:41:46;;;;;;;;;19.75;15.25;;;;;;;;5059211;28;11756;-75
2021/10/28 06:44:14;;;;;;;;;13.50;11.75;;;;;;;;5061772;28;11537;-74
2021/10/28 06:46:41;;;;;;;;;14.75;14.75;;;;;;;;5059453;28;11526;-74
2021/10/28 06:49:08;;;;;;;;;15.75;15.75;;;;;;;;5064567;28;12318;-74
2021/10/28 06:51:38;;;;;;;;;16.50;15.00;;;;;;;;5061952;28;11671;-74
2021/10/28 06:54:10;;;;;;;;;18.00;17.00;;;;;;;;5061026;28;11559;-74
2021/10/28 06:57:00;;;;;;;;;15.75;15.75;;;;;;;;5058247;28;12368;-73
2021/10/28 07:02:18;;;;;;;;;16.75;14.25;;;;;;;;5054725;28;11496;-75
2021/10/28 07:04:46;;;;;;;;;17.50;15.00;;;;;;;;5054334;28;11585;-74
2021/10/28 07:07:14;;;;;;;;;19.25;17.75;;;;;;;;5043756;28;11619;-74
2021/10/28 07:09:43;;;;;;;;;14.25;12.00;;;;;;;;5061228;28;11581;-75
2021/10/28 07:12:18;;;;;;;;;16.75;16.75;;;;;;;;5059958;28;11556;-74
2021/10/28 07:14:50;;;;;;;;;14.75;14.75;;;;;;;;5059908;28;11518;-75
2021/10/28 07:17:27;;;;;;;;;20.00;15.00;;;;;;;;5058124;28;11523;-74
2021/10/28 07:20:12;;;;;;;;;14.00;14.00;;;;;;;;5040542;28;12281;-74
2021/10/28 07:23:16;;;;;;;;;16.25;16.25;;;;;;;;5058507;28;11565;-72
2021/10/28 07:34:11;;;;;;;;;17.25;16.00;;;;;;;;5057361;28;12460;-75
2021/10/28 07:59:48;;;;;;;;;19.00;17.50;;;;;;;;5049961;28;11094;-73
2021/10/28 08:13:34;;;;;;;;;18.25;16.00;;;;;;;;5050619;28;10830;-76
2021/10/28 08:16:25;;;;;;;;;22.25;21.00;;;;;;;;5062060;28;10907;-77
2021/10/28 08:18:59;;;;;;;;;22.50;18.50;;;;;;;;5036961;28;10927;-77
2021/10/28 08:24:29;;;;;;;;;22.00;22.00;;;;;;;;5066604;28;10868;-75
2021/10/28 08:29:45;;;;;;;;;21.75;19.75;;;;;;;;5063385;28;10666;-76
2021/10/28 08:32:13;;;;;;;;;20.75;19.75;;;;;;;;5064284;28;10568;-76
2021/10/28 08:34:41;;;;;;;;;19.75;17.00;;;;;;;;5062365;28;10767;-74
2021/10/28 08:37:14;;;;;;;;;17.75;17.75;;;;;;;;5045757;28;10791;-75
2021/10/28 08:39:44;;;;;;;;;17.00;16.50;;;;;;;;5059767;28;10567;-75
2021/10/28 08:42:13;;;;;;;;;24.25;17.75;;;;;;;;5062593;28;10617;-75
2021/10/28 08:44:42;;;;;;;;;19.00;18.25;;;;;;;;5061480;28;10468;-75
2021/10/28 08:47:10;;;;;;;;;20.25;16.75;;;;;;;;5019769;28;10321;-75
2021/10/28 08:49:42;;;;;;;;;14.50;14.50;;;;;;;;5040481;28;10359;-75
2021/10/28 08:52:30;;;;;;;;;14.00;14.00;;;;;;;;5021713;28;10723;-76
2021/10/28 08:55:06;;;;;;;;;9.75;9.75;;;;;;;;5033022;28;10292;-76
2021/10/28 09:25:36;;;;;;;;;14.25;14.25;;;;;;;;5045415;28;9521;-80
2021/10/28 09:28:13;;;;;;;;;20.00;19.50;;;;;;;;5038430;28;9573;-75
2021/10/28 09:30:47;;;;;;;;;15.00;13.25;;;;;;;;5043090;28;9536;-77
2021/10/28 09:33:22;;;;;;;;;12.67;12.67;;;;;;;;5039353;28;9488;-77
2021/10/28 09:35:59;;;;;;;;;16.00;15.67;;;;;;;;5015458;28;9452;-78
2021/10/28 09:44:47;;;;;;;;;16.33;12.67;;;;;;;;5039147;28;9100;-76
2021/10/28 09:47:45;;;;;;;;;11.33;10.67;;;;;;;;5039938;28;9056;-79
2021/10/28 09:50:17;;;;;;;;;12.67;12.67;;;;;;;;5025344;28;9032;-78
2021/10/28 09:53:07;;;;;;;;;16.00;15.67;;;;;;;;5036451;28;9281;-77
2021/10/28 09:58:32;;;;;;;;;14.25;13.50;;;;;;;;5041594;28;9597;-78
2021/10/28 10:01:01;;;;;;;;;15.50;13.25;;;;;;;;5043119;28;8833;-77
2021/10/28 10:03:32;;;;;;;;;15.50;13.00;;;;;;;;5026189;28;8898;-76
2021/10/28 10:06:02;;;;;;;;;10.75;10.75;;;;;;;;5037936;28;8902;-76
2021/10/28 10:08:30;;;;;;;;;12.25;11.00;;;;;;;;5042784;28;8870;-77
2021/10/28 10:10:57;;;;;;;;;10.75;10.75;;;;;;;;5040938;28;9660;-79
2021/10/28 10:13:27;;;;;;;;;9.25;9.25;;;;;;;;5027941;28;8999;-78
2021/10/28 10:15:57;;;;;;;;;15.00;12.75;;;;;;;;5038239;28;8877;-76
2021/10/28 10:18:25;;;;;;;;;11.50;10.25;;;;;;;;5035447;28;8863;-75
2021/10/28 10:20:57;;;;;;;;;10.75;10.50;;;;;;;;5040336;28;8889;-76
2021/10/28 10:26:37;;;;;;;;;9.25;6.75;;;;;;;;5043770;28;8887;-77
2021/10/28 11:05:19;;;;;;;;;8.00;8.00;;;;;;;;5036953;28;8838;-77
2021/10/28 12:24:12;;;;;;;;;7.60;7.60;;;;;;;;5048099;28;9628;-76
2021/10/28 12:44:07;;;;;;;;;7.60;7.60;;;;;;;;5041679;28;8854;-77
2021/10/28 12:47:14;;;;;;;;;8.40;7.60;;;;;;;;5043731;28;8957;-78
2021/10/28 12:52:47;;;;;;;;;8.20;7.80;;;;;;;;5042774;28;8851;-77
2021/10/28 13:04:03;;;;;;;;;8.60;7.00;;;;;;;;5044498;28;9676;-78
2021/10/28 13:48:18;;;;;;;;;8.60;8.60;;;;;;;;5041245;28;9694;-79
2021/10/28 13:59:44;;;;;;;;;7.20;7.20;;;;;;;;5038944;28;9836;-79
2021/10/28 14:19:10;;;;;;;;;6.60;6.60;;;;;;;;5040650;28;8843;-78
2021/10/28 14:38:37;;;;;;;;;7.80;7.40;;;;;;;;5041058;28;8936;-77
2021/10/28 15:03:25;;;;;;;;;6.20;6.20;;;;;;;;5015138;28;8863;-77
2021/10/28 15:28:01;;;;;;;;;6.20;6.20;;;;;;;;5052933;28;8874;-77
2021/10/28 15:30:53;;;;;;;;;6.00;6.00;;;;;;;;5042816;28;8803;-76
2021/10/28 15:36:09;;;;;;;;;7.40;7.40;;;;;;;;5041793;28;8862;-74
2021/10/28 16:23:33;;;;;;;;;6.00;6.00;;;;;;;;5058923;28;8869;-74
2021/10/28 16:26:02;;;;;;;;;2.25;2.25;;;;;;;;5058680;28;9678;-73
2021/10/28 16:28:30;;;;;;;;;8.00;6.50;;;;;;;;5053718;28;8924;-74
2021/10/28 16:30:58;;;;;;;;;6.00;6.00;;;;;;;;5046111;28;8840;-77
2021/10/28 16:33:27;;;;;;;;;7.00;5.75;;;;;;;;5036841;28;8909;-75
2021/10/28 16:35:55;;;;;;;;;13.25;9.00;;;;;;;;5039821;28;9686;-73
2021/10/28 16:38:24;;;;;;;;;6.50;6.50;;;;;;;;5037315;28;8884;-74
2021/10/28 16:40:51;;;;;;;;;6.00;6.00;;;;;;;;5030505;28;8873;-75
2021/10/28 16:43:19;;;;;;;;;7.00;7.00;;;;;;;;5032382;28;8886;-74
2021/10/28 16:45:47;;;;;;;;;10.00;7.00;;;;;;;;5035142;28;8888;-74
2021/10/28 16:48:14;;;;;;;;;5.00;5.00;;;;;;;;5037673;28;8895;-79
2021/10/28 16:50:44;;;;;;;;;6.00;6.00;;;;;;;;5037429;28;8866;-78
2021/10/28 16:53:11;;;;;;;;;6.00;6.00;;;;;;;;5027743;28;9046;-81
2021/10/28 16:55:40;;;;;;;;;6.75;6.75;;;;;;;;5033376;28;8873;-80
2021/10/28 16:58:09;;;;;;;;;5.75;4.50;;;;;;;;5036501;28;8886;-80
2021/10/28 17:00:36;;;;;;;;;10.00;7.00;;;;;;;;5034760;28;8774;-81
2021/10/28 17:03:04;;;;;;;;;6.25;6.00;;;;;;;;5055038;28;8881;-82
2021/10/28 17:05:31;;;;;;;;;12.25;12.25;;;;;;;;5063850;28;9603;-83
2021/10/28 17:08:04;;;;;;;;;7.25;6.75;;;;;;;;5056660;28;8970;-87
2021/10/28 17:10:33;;;;;;;;;4.00;4.00;;;;;;;;5061138;28;8853;-85
2021/10/28 17:13:00;;;;;;;;;6.75;6.75;;;;;;;;5042436;28;9012;-83
2021/10/28 17:15:28;;;;;;;;;7.75;7.75;;;;;;;;5051416;28;8954;-80
2021/10/28 17:17:56;;;;;;;;;6.00;6.00;;;;;;;;5042441;28;8873;-83
2021/10/28 17:20:24;;;;;;;;;6.25;6.25;;;;;;;;5038306;28;8896;-82
2021/10/28 17:22:55;;;;;;;;;7.00;7.00;;;;;;;;5039811;28;8923;-87
2021/10/28 17:25:26;;;;;;;;;9.75;8.50;;;;;;;;5042443;28;8885;-86
2021/10/28 17:27:53;;;;;;;;;5.75;5.75;;;;;;;;5041289;28;8883;-84
2021/10/28 17:30:21;;;;;;;;;13.25;10.75;;;;;;;;5040575;28;8870;-83
2021/10/28 17:32:49;;;;;;;;;8.75;8.75;;;;;;;;5041929;28;8865;-83
2021/10/28 17:35:16;;;;;;;;;10.50;8.50;;;;;;;;5043551;28;8999;-82
2021/10/28 17:37:44;;;;;;;;;11.50;10.25;;;;;;;;5043480;28;9103;-83
2021/10/28 17:40:12;;;;;;;;;9.00;6.00;;;;;;;;5039862;28;8845;-84
2021/10/28 17:42:43;;;;;;;;;10.00;10.00;;;;;;;;5042952;28;8903;-88
2021/10/28 17:45:12;;;;;;;;;6.00;6.00;;;;;;;;5042979;28;8897;-87
2021/10/28 17:47:40;;;;;;;;;9.00;9.00;;;;;;;;5041801;28;8842;-80
2021/10/28 17:50:08;;;;;;;;;6.50;6.50;;;;;;;;5043128;28;8992;-82
2021/10/28 17:52:36;;;;;;;;;8.50;8.50;;;;;;;;5043091;28;9019;-80
2021/10/28 17:55:05;;;;;;;;;5.00;5.00;;;;;;;;5044244;28;8903;-80
2021/10/28 17:57:32;;;;;;;;;7.50;7.50;;;;;;;;5043924;28;8850;-78
2021/10/28 18:00:01;;;;;;;;;9.25;9.25;;;;;;;;5039074;28;8864;-83
2021/10/28 18:02:28;;;;;;;;;6.00;6.00;;;;;;;;5040505;28;8920;-85
2021/10/28 18:04:55;;;;;;;;;6.50;5.25;;;;;;;;5038285;28;8862;-84
2021/10/28 18:07:23;;;;;;;;;7.75;7.75;;;;;;;;5043674;28;8885;-77
2021/10/28 18:09:51;;;;;;;;;8.00;8.00;;;;;;;;5042675;28;8899;-81
2021/10/28 18:12:18;;;;;;;;;5.75;5.75;;;;;;;;5042152;28;8874;-84
2021/10/28 18:14:45;;;;;;;;;10.00;9.50;;;;;;;;5042791;28;8964;-91
2021/10/28 18:17:15;;;;;;;;;8.00;8.00;;;;;;;;5045404;28;9601;-84
2021/10/28 18:19:43;;;;;;;;;7.00;7.00;;;;;;;;5045767;28;9043;-81
2021/10/28 18:22:10;;;;;;;;;9.67;9.00;;;;;;;;5042835;28;9004;-82
2021/10/28 18:24:38;;;;;;;;;11.33;10.00;;;;;;;;5041224;28;8939;-79
2021/10/28 18:27:07;;;;;;;;;8.00;5.00;;;;;;;;5039830;28;8978;-80
2021/10/28 18:29:35;;;;;;;;;10.00;8.00;;;;;;;;5043761;28;8980;-79
2021/10/28 18:32:03;;;;;;;;;8.00;8.00;;;;;;;;5041529;28;8919;-76
2021/10/28 18:34:32;;;;;;;;;7.25;7.25;;;;;;;;5038935;28;8930;-78
2021/10/28 18:37:00;;;;;;;;;8.25;8.25;;;;;;;;5042469;28;8873;-78
2021/10/28 18:39:27;;;;;;;;;12.00;10.67;;;;;;;;5041258;28;8870;-79
2021/10/28 18:41:57;;;;;;;;;11.00;9.00;;;;;;;;5043296;28;9141;-77
2021/10/28 18:44:24;;;;;;;;;15.00;11.00;;;;;;;;5042934;28;9139;-78
2021/10/28 18:46:52;;;;;;;;;11.00;9.67;;;;;;;;5043659;28;9120;-79
2021/10/28 18:49:20;;;;;;;;;11.00;9.00;;;;;;;;5042968;28;9123;-77
2021/10/28 18:51:50;;;;;;;;;10.33;10.33;;;;;;;;5043422;28;9133;-78
2021/10/28 18:54:17;;;;;;;;;10.00;10.00;;;;;;;;5043316;28;9255;-77
2021/10/28 18:56:46;;;;;;;;;8.00;8.00;;;;;;;;5039795;28;9333;-80
2021/10/28 18:59:13;;;;;;;;;5.00;5.00;;;;;;;;5043817;28;9185;-78
2021/10/28 19:01:41;;;;;;;;;9.33;8.33;;;;;;;;5041365;28;9228;-78
2021/10/28 19:04:08;;;;;;;;;7.00;7.00;;;;;;;;5025284;28;9375;-78
2021/10/28 19:06:36;;;;;;;;;9.00;9.00;;;;;;;;5041797;28;9307;-77
2021/10/28 19:09:05;;;;;;;;;10.00;8.00;;;;;;;;5044087;28;9535;-80
2021/10/28 19:11:32;;;;;;;;;7.00;7.00;;;;;;;;5041784;28;9538;-79
2021/10/28 19:13:59;;;;;;;;;5.75;5.75;;;;;;;;5041834;28;9755;-80
2021/10/28 19:16:27;;;;;;;;;7.75;7.75;;;;;;;;5040527;28;9754;-77
2021/10/28 19:18:54;;;;;;;;;8.50;8.50;;;;;;;;5041600;28;9655;-77
2021/10/28 19:21:22;;;;;;;;;7.00;7.00;;;;;;;;5042589;28;9875;-78
2021/10/28 19:23:49;;;;;;;;;8.00;8.00;;;;;;;;5041125;28;9955;-77
2021/10/28 19:26:18;;;;;;;;;10.75;9.00;;;;;;;;5042582;28;10105;-78
2021/10/28 19:28:45;;;;;;;;;9.50;8.75;;;;;;;;5038913;28;9954;-78
2021/10/28 19:31:14;;;;;;;;;11.00;11.00;;;;;;;;5042055;28;10194;-78
2021/10/28 19:33:44;;;;;;;;;9.00;7.00;;;;;;;;5043538;28;10090;-75
2021/10/28 19:36:15;;;;;;;;;6.75;6.75;;;;;;;;5039899;28;10205;-76
2021/10/28 19:38:54;;;;;;;;;12.50;9.00;;;;;;;;5041824;28;10094;-78
2021/10/28 19:41:54;;;;;;;;;12.00;9.00;;;;;;;;5039388;28;10241;-76
2021/10/28 19:47:15;;;;;;;;;10.00;9.00;;;;;;;;5003691;28;10291;-79
2021/10/28 19:49:44;;;;;;;;;15.50;12.25;;;;;;;;5040980;28;11101;-78
2021/10/28 19:52:13;;;;;;;;;11.25;11.25;;;;;;;;5042757;28;10495;-76
2021/10/28 19:54:41;;;;;;;;;10.25;10.25;;;;;;;;5040835;28;10655;-75
2021/10/28 19:57:15;;;;;;;;;8.25;8.25;;;;;;;;5042361;28;10740;-78
2021/10/28 19:59:47;;;;;;;;;11.75;10.00;;;;;;;;5042746;28;10665;-76
2021/10/28 20:02:20;;;;;;;;;7.50;6.25;;;;;;;;5041181;28;10712;-79
2021/10/28 20:07:55;;;;;;;;;11.75;9.00;;;;;;;;5035149;28;10710;-76
2021/10/28 20:21:20;;;;;;;;;18.25;16.25;;;;;;;;5039581;28;10670;-76
2021/10/28 20:23:49;;;;;;;;;21.00;21.00;;;;;;;;5034917;28;10902;-77
2021/10/28 20:26:16;;;;;;;;;23.00;21.25;;;;;;;;5040599;28;11598;-76
2021/10/28 20:28:47;;;;;;;;;19.50;19.25;;;;;;;;5029921;28;11234;-78
2021/10/28 20:31:17;;;;;;;;;15.50;15.50;;;;;;;;5040167;28;11861;-77
2021/10/28 20:33:48;;;;;;;;;18.50;15.25;;;;;;;;5038202;28;10871;-77
2021/10/28 20:39:15;;;;;;;;;13.00;8.25;;;;;;;;5000569;28;10343;-80
2021/10/28 20:41:42;;;;;;;;;11.25;9.75;;;;;;;;4960821;28;10289;-81
2021/10/28 20:44:11;;;;;;;;;12.50;12.50;;;;;;;;5008498;28;10219;-76
2021/10/28 20:46:38;;;;;;;;;11.00;11.00;;;;;;;;5041547;28;10045;-80
2021/10/28 20:49:07;;;;;;;;;21.00;13.75;;;;;;;;5044919;28;10104;-77
2021/10/28 20:51:35;;;;;;;;;11.25;9.00;;;;;;;;5034836;28;10216;-80
2021/10/28 20:54:03;;;;;;;;;13.50;13.50;;;;;;;;5046439;28;11438;-77
2021/10/28 20:56:32;;;;;;;;;17.25;14.25;;;;;;;;5041028;28;10354;-78
2021/10/28 20:58:59;;;;;;;;;10.75;10.75;;;;;;;;5036583;28;10405;-77
2021/10/28 21:01:28;;;;;;;;;15.00;15.00;;;;;;;;5043321;28;10343;-79
2021/10/28 21:03:56;;;;;;;;;12.00;12.00;;;;;;;;5040989;28;10191;-80
2021/10/28 21:06:23;;;;;;;;;20.75;20.75;;;;;;;;5041389;28;10154;-75
2021/10/28 21:08:51;;;;;;;;;19.25;17.25;;;;;;;;5044931;28;10359;-76
2021/10/28 21:11:18;;;;;;;;;33.00;28.75;;;;;;;;5043411;28;10556;-75
2021/10/28 21:13:46;;;;;;;;;34.50;32.00;;;;;;;;5044730;28;10768;-75
2021/10/28 21:16:13;;;;;;;;;24.25;24.00;;;;;;;;5042175;28;10644;-76
2021/10/28 21:18:42;;;;;;;;;38.50;35.25;;;;;;;;5046324;28;10641;-80
2021/10/28 21:21:09;;;;;;;;;30.75;29.75;;;;;;;;5032890;28;10759;-79
2021/10/28 21:23:36;;;;;;;;;43.75;38.00;;;;;;;;5045685;28;10625;-81
2021/10/28 21:26:04;;;;;;;;;41.50;37.75;;;;;;;;5045054;28;10858;-76
2021/10/28 21:28:31;;;;;;;;;33.50;32.00;;;;;;;;5045106;28;10737;-78
2021/10/28 21:30:59;;;;;;;;;26.75;25.50;;;;;;;;5050454;28;10632;-75
2021/10/28 21:33:26;;;;;;;;;17.50;17.50;;;;;;;;5036947;28;10414;-76
2021/10/28 21:35:55;;;;;;;;;13.50;12.50;;;;;;;;5048319;28;10000;-78
2021/10/28 21:38:22;;;;;;;;;19.00;18.25;;;;;;;;5045430;28;9970;-78
2021/10/28 21:40:50;;;;;;;;;12.25;12.25;;;;;;;;5041884;28;10036;-77
2021/10/28 21:43:17;;;;;;;;;12.50;11.50;;;;;;;;5044631;28;9876;-75
2021/10/28 21:45:47;;;;;;;;;12.00;12.00;;;;;;;;5045704;28;10277;-80
2021/10/28 21:48:15;;;;;;;;;9.00;9.00;;;;;;;;5045000;28;9773;-80
2021/10/28 21:50:42;;;;;;;;;10.50;10.50;;;;;;;;5045483;28;9881;-76
2021/10/28 21:53:13;;;;;;;;;11.75;11.75;;;;;;;;5045839;28;10639;-77
2021/10/28 21:55:49;;;;;;;;;11.50;9.50;;;;;;;;5044514;28;9783;-79
2021/10/28 21:58:23;;;;;;;;;10.00;9.75;;;;;;;;5045150;28;9960;-79
2021/10/28 22:00:59;;;;;;;;;11.50;11.50;;;;;;;;5042483;28;9714;-77
2021/10/28 22:25:29;;;;;;;;;9.50;9.50;;;;;;;;5043139;28;9407;-77
2021/10/28 22:27:56;;;;;;;;;9.00;9.00;;;;;;;;5044721;28;9488;-74
2021/10/28 22:30:24;;;;;;;;;10.25;10.00;;;;;;;;5042106;28;9536;-79
2021/10/28 22:32:53;;;;;;;;;11.00;11.00;;;;;;;;5031886;28;9603;-78
2021/10/28 22:35:25;;;;;;;;;11.67;11.67;;;;;;;;5043438;28;9494;-78
2021/10/28 22:38:00;;;;;;;;;11.75;8.50;;;;;;;;5033266;28;9335;-77
2021/10/28 22:40:33;;;;;;;;;10.33;9.00;;;;;;;;5044452;28;9432;-83
2021/10/28 22:43:01;;;;;;;;;11.67;9.67;;;;;;;;5043590;28;9365;-80
2021/10/28 22:45:30;;;;;;;;;10.00;9.00;;;;;;;;5043567;28;9327;-82
2021/10/28 22:47:57;;;;;;;;;9.33;9.33;;;;;;;;5043485;28;9335;-80
2021/10/28 22:50:26;;;;;;;;;10.00;10.00;;;;;;;;5044646;28;9602;-82
2021/10/28 22:52:53;;;;;;;;;11.50;9.25;;;;;;;;5042432;28;9627;-84
2021/10/28 22:55:23;;;;;;;;;10.75;9.25;;;;;;;;5042230;28;9488;-80
2021/10/28 22:57:56;;;;;;;;;10.50;10.50;;;;;;;;5044984;28;9516;-79
2021/10/28 23:00:32;;;;;;;;;9.50;9.50;;;;;;;;5042159;28;9523;-79
2021/10/28 23:03:07;;;;;;;;;10.50;10.25;;;;;;;;5043482;28;9413;-79
2021/10/28 23:14:14;;;;;;;;;10.75;10.75;;;;;;;;5043067;28;9454;-78
2021/10/28 23:22:10;;;;;;;;;8.00;8.00;;;;;;;;5042516;28;10367;-80
2021/10/28 23:24:38;;;;;;;;;9.00;9.00;;;;;;;;5040238;28;9673;-79
2021/10/28 23:27:06;;;;;;;;;9.75;9.50;;;;;;;;5042021;28;9614;-78